Terminal Aerodrome Forecast
Issued by NWS

Home | Current Version | Previous Version | Text Only | Print | Product List | Glossary On
Versions: 1 2 3 4 5 6 7 8 9 10 11 12 13 14 15 16
000
FTUS45 KABQ 281700
TAFAEG
TAF
KAEG 281739Z 2818/2918 15011KT P6SM SCT050 BKN120
     FM282300 15014KT P6SM VCTS SCT060CB BKN120
     FM290200 27008KT P6SM VCSH BKN100
     FM290600 14005KT P6SM FEW030 SCT100 BKN200=

USA.gov is the U.S. government's official web portal to all federal, state and local government web resources and services.